Kalar Kahar Weather



Kalar Kahar's Current Weather

Temprature 9.53o clear sky

clear sky

Rain: 0 %

Min Temprature9.53o
Max Temprature9.53o
Humidity42
Wind Speed5.67 m/h
Sun Rise07:09:07
Sun Set17:32:35
Current Time: 23-Jan-2021 19:15:49
Lat/Lon: 32.7818, 72.6994




Kalar Kahar's Geo Location



Kalar Kahar's Weather Forecast

Time Overall Temp Min Temp Max Temp Humidity Wind Speed Rain
23-Jan-2021 (Sat)
20:00:00 clear sky 10.640 9.330 10.640 42 5.79 m/h 0 %
23:00:00 clear sky 9.280 8.570 9.280 43 5.38 m/h 0 %
24-Jan-2021 (Sun)
02:00:00 clear sky 7.730 7.450 7.730 39 4.9 m/h 0 %
05:00:00 clear sky 5.970 5.920 5.970 49 4.21 m/h 0 %
08:00:00 clear sky 6.300 6.300 6.300 55 3.29 m/h 0 %
11:00:00 clear sky 12.370 12.370 12.370 40 4.34 m/h 0 %
14:00:00 clear sky 15.560 15.560 15.560 33 5.34 m/h 0 %
17:00:00 clear sky 12.730 12.730 12.730 38 4.22 m/h 0 %
20:00:00 clear sky 9.380 9.380 9.380 42 3.31 m/h 0 %
23:00:00 clear sky 8.750 8.750 8.750 41 3.46 m/h 0 %
25-Jan-2021 (Mon)
02:00:00 clear sky 8.020 8.020 8.020 42 3.96 m/h 0 %
05:00:00 clear sky 6.490 6.490 6.490 50 3.7 m/h 0 %
08:00:00 clear sky 7.250 7.250 7.250 50 3.41 m/h 0 %
11:00:00 clear sky 13.830 13.830 13.830 33 3.95 m/h 0 %
14:00:00 clear sky 16.870 16.870 16.870 28 3.63 m/h 0 %
17:00:00 clear sky 13.900 13.900 13.900 36 2.22 m/h 0 %
20:00:00 clear sky 9.590 9.590 9.590 43 1.8 m/h 0 %
23:00:00 clear sky 9.000 9.000 9.000 43 2.07 m/h 0 %
26-Jan-2021 (Tue)
02:00:00 clear sky 8.370 8.370 8.370 43 2.58 m/h 0 %
05:00:00 clear sky 7.520 7.520 7.520 47 3.11 m/h 0 %
08:00:00 clear sky 7.760 7.760 7.760 49 2.82 m/h 0 %
11:00:00 clear sky 14.180 14.180 14.180 32 3.66 m/h 0 %
14:00:00 clear sky 16.660 16.660 16.660 28 4.78 m/h 0 %
17:00:00 clear sky 13.660 13.660 13.660 35 3.17 m/h 0 %
20:00:00 clear sky 9.520 9.520 9.520 43 2.38 m/h 0 %
23:00:00 clear sky 8.490 8.490 8.490 45 2.24 m/h 0 %
27-Jan-2021 (Wed)
02:00:00 clear sky 8.020 8.020 8.020 47 2.53 m/h 0 %
05:00:00 clear sky 7.470 7.470 7.470 49 3.03 m/h 0 %
08:00:00 clear sky 7.820 7.820 7.820 50 3.59 m/h 0 %
11:00:00 scattered clouds 14.010 14.010 14.010 33 5.58 m/h 0 %
14:00:00 scattered clouds 16.110 16.110 16.110 29 6.26 m/h 0 %
17:00:00 broken clouds 13.320 13.320 13.320 36 3.65 m/h 0 %
20:00:00 broken clouds 9.440 9.440 9.440 43 2.73 m/h 0 %
23:00:00 scattered clouds 8.800 8.800 8.800 44 2.71 m/h 0 %
28-Jan-2021 (Thu)
02:00:00 clear sky 7.910 7.910 7.910 47 2.86 m/h 0 %
05:00:00 clear sky 7.000 7.000 7.000 49 2.97 m/h 0 %
08:00:00 clear sky 7.390 7.390 7.390 50 3.36 m/h 0 %
11:00:00 clear sky 14.310 14.310 14.310 31 5.32 m/h 0 %
14:00:00 clear sky 16.450 16.450 16.450 28 5.71 m/h 0 %
17:00:00 clear sky 13.560 13.560 13.560 35 3.67 m/h 0 %

Famous Cities (60)